Time;durP1;ratioP1;P1;durP2;ratioP2;P2;SDS_P1;SDS_P2;PMS_P1;PMS_P2;Temp;Humidity;BMP_temperature;BMP_pressure;BME280_temperature;BME280_humidity;BME280_pressure;Samples;Min_cycle;Max_cycle;Signal;HPM_P1;HPM_P2
2022/04/22 00:01:43;;;;;;;11.60;8.50;;;;;;;;;;5021963;28;20064;-61
2022/04/22 00:04:10;;;;;;;11.68;9.40;;;;;;;;;;5017024;28;20753;-61
2022/04/22 00:06:35;;;;;;;10.20;8.43;;;;;;;;;;5014045;28;20764;-62
2022/04/22 00:09:01;;;;;;;10.93;8.50;;;;;;;;;;5021148;28;20116;-61
2022/04/22 00:11:30;;;;;;;10.57;9.00;;;;;;;;;;5021872;28;20018;-59
2022/04/22 00:13:57;;;;;;;12.38;9.35;;;;;;;;;;5028148;28;20575;-59
2022/04/22 00:16:25;;;;;;;12.75;9.27;;;;;;;;;;5022067;28;20029;-62
2022/04/22 00:18:51;;;;;;;12.70;9.07;;;;;;;;;;5021954;28;20404;-59
2022/04/22 00:21:17;;;;;;;12.57;9.20;;;;;;;;;;5021330;28;20312;-60
2022/04/22 00:23:43;;;;;;;11.38;9.07;;;;;;;;;;5027327;28;20115;-60
2022/04/22 00:26:09;;;;;;;12.48;9.15;;;;;;;;;;5024339;28;20029;-61
2022/04/22 00:28:35;;;;;;;12.68;9.45;;;;;;;;;;5023023;28;20025;-61
2022/04/22 00:31:01;;;;;;;11.25;9.00;;;;;;;;;;5023209;28;20459;-61
2022/04/22 00:33:27;;;;;;;13.02;9.43;;;;;;;;;;5017043;28;20030;-59
2022/04/22 00:35:53;;;;;;;10.75;8.93;;;;;;;;;;5021478;28;20022;-61
2022/04/22 00:38:19;;;;;;;10.93;8.35;;;;;;;;;;5026898;28;20030;-58
2022/04/22 00:40:45;;;;;;;13.77;9.10;;;;;;;;;;5021582;28;20057;-58
2022/04/22 00:43:23;;;;;;;15.80;9.35;;;;;;;;;;5020993;28;20025;-60
2022/04/22 00:45:50;;;;;;;11.43;8.98;;;;;;;;;;5022426;28;20793;-62
2022/04/22 00:48:17;;;;;;;12.55;9.25;;;;;;;;;;5021402;28;20352;-59
2022/04/22 00:50:43;;;;;;;11.98;9.05;;;;;;;;;;5022821;28;20032;-59
2022/04/22 00:53:10;;;;;;;13.80;9.07;;;;;;;;;;5022979;28;20489;-61
2022/04/22 00:55:37;;;;;;;12.60;9.15;;;;;;;;;;5017770;28;20421;-60
2022/04/22 00:58:04;;;;;;;14.85;9.13;;;;;;;;;;5024731;28;20029;-58
2022/04/22 01:00:30;;;;;;;11.50;8.60;;;;;;;;;;5021411;28;20072;-60
2022/04/22 01:02:56;;;;;;;13.25;9.55;;;;;;;;;;5022838;28;20044;-60
2022/04/22 01:10:54;;;;;;;12.35;9.15;;;;;;;;;;5026497;28;20123;-59
2022/04/22 01:13:20;;;;;;;14.10;9.40;;;;;;;;;;5024876;28;20029;-59
2022/04/22 01:15:47;;;;;;;14.57;9.93;;;;;;;;;;5024044;28;20029;-59
2022/04/22 01:18:14;;;;;;;18.48;12.27;;;;;;;;;;5024972;28;20087;-59
2022/04/22 01:20:40;;;;;;;15.82;10.07;;;;;;;;;;5028641;28;20111;-61
2022/04/22 01:23:06;;;;;;;13.05;9.93;;;;;;;;;;5030640;28;20543;-62
2022/04/22 01:25:32;;;;;;;11.60;9.50;;;;;;;;;;5024276;28;20095;-60
2022/04/22 01:27:59;;;;;;;12.27;9.10;;;;;;;;;;5010928;28;20480;-60
2022/04/22 01:30:25;;;;;;;11.90;9.57;;;;;;;;;;5027853;28;20439;-59
2022/04/22 01:32:52;;;;;;;13.02;9.70;;;;;;;;;;5023854;28;20083;-60
2022/04/22 01:35:18;;;;;;;13.25;9.63;;;;;;;;;;5018404;28;20029;-61
2022/04/22 01:37:44;;;;;;;11.05;8.95;;;;;;;;;;5023825;28;20237;-61
2022/04/22 01:40:11;;;;;;;11.93;8.98;;;;;;;;;;5027500;28;20029;-59
2022/04/22 01:42:37;;;;;;;10.50;9.00;;;;;;;;;;5023478;28;20532;-61
2022/04/22 01:45:04;;;;;;;14.32;10.10;;;;;;;;;;5024016;28;20123;-60
2022/04/22 01:47:30;;;;;;;13.15;9.30;;;;;;;;;;5021313;28;20492;-60
2022/04/22 01:49:56;;;;;;;13.88;9.70;;;;;;;;;;5012948;28;20079;-59
2022/04/22 01:52:23;;;;;;;13.20;9.70;;;;;;;;;;5015469;28;20048;-57
2022/04/22 01:54:53;;;;;;;12.73;9.40;;;;;;;;;;5023640;28;20446;-60
2022/04/22 01:57:19;;;;;;;13.10;9.77;;;;;;;;;;5028017;28;20556;-60
2022/04/22 01:59:46;;;;;;;13.82;9.88;;;;;;;;;;5023455;28;20112;-61
2022/04/22 02:02:13;;;;;;;13.63;10.70;;;;;;;;;;5024088;28;20022;-60
2022/04/22 02:04:39;;;;;;;11.82;9.55;;;;;;;;;;5026239;28;20031;-62
2022/04/22 02:07:05;;;;;;;13.55;10.35;;;;;;;;;;5027125;28;20468;-61
2022/04/22 02:09:31;;;;;;;13.18;10.27;;;;;;;;;;5023174;28;20033;-62
2022/04/22 02:11:57;;;;;;;13.95;9.98;;;;;;;;;;5022847;28;20021;-59
2022/04/22 02:14:25;;;;;;;13.68;10.27;;;;;;;;;;5024794;28;20056;-62
2022/04/22 02:16:51;;;;;;;14.80;10.93;;;;;;;;;;5024318;28;20021;-61
2022/04/22 02:19:18;;;;;;;14.10;11.07;;;;;;;;;;5026664;28;20041;-60
2022/04/22 02:21:44;;;;;;;14.93;9.88;;;;;;;;;;5025651;28;20167;-60
2022/04/22 02:24:10;;;;;;;16.17;10.90;;;;;;;;;;5023331;28;20639;-59
2022/04/22 02:29:20;;;;;;;17.95;12.02;;;;;;;;;;5023737;28;20044;-59
2022/04/22 02:31:47;;;;;;;15.95;11.27;;;;;;;;;;5022549;28;20042;-59
2022/04/22 02:34:13;;;;;;;15.82;11.18;;;;;;;;;;5023407;28;20056;-59
2022/04/22 02:36:41;;;;;;;21.45;12.10;;;;;;;;;;5025797;28;20382;-60
2022/04/22 02:39:07;;;;;;;17.23;11.30;;;;;;;;;;5026988;28;20118;-59
2022/04/22 02:47:03;;;;;;;18.15;11.90;;;;;;;;;;5022991;28;20569;-61
2022/04/22 02:49:29;;;;;;;16.17;11.35;;;;;;;;;;5025872;28;20658;-60
2022/04/22 02:51:55;;;;;;;17.33;11.95;;;;;;;;;;5023552;28;20080;-61
2022/04/22 02:54:21;;;;;;;18.42;11.93;;;;;;;;;;5022464;28;20113;-59
2022/04/22 02:56:50;;;;;;;16.73;12.15;;;;;;;;;;5025350;28;20468;-61
2022/04/22 02:59:16;;;;;;;16.48;12.73;;;;;;;;;;5023663;28;20029;-60
2022/04/22 03:01:43;;;;;;;17.20;13.00;;;;;;;;;;5022605;28;20667;-61
2022/04/22 03:04:09;;;;;;;19.95;12.48;;;;;;;;;;5025320;28;20507;-58
2022/04/22 03:06:35;;;;;;;15.75;11.82;;;;;;;;;;5029234;28;20032;-61
2022/04/22 03:09:01;;;;;;;18.58;12.80;;;;;;;;;;5023218;28;20025;-60
2022/04/22 03:11:28;;;;;;;18.48;12.82;;;;;;;;;;5022452;28;20025;-61
2022/04/22 03:13:54;;;;;;;18.05;13.18;;;;;;;;;;5023902;28;20021;-59
2022/04/22 03:16:24;;;;;;;18.17;13.18;;;;;;;;;;5021976;28;20037;-59
2022/04/22 03:18:50;;;;;;;17.20;13.20;;;;;;;;;;5026137;28;20029;-58
2022/04/22 03:21:16;;;;;;;17.10;13.13;;;;;;;;;;5022948;28;20030;-59
2022/04/22 03:23:42;;;;;;;20.00;14.43;;;;;;;;;;5022882;28;20029;-59
2022/04/22 03:26:08;;;;;;;19.10;13.35;;;;;;;;;;5022092;28;20128;-59
2022/04/22 03:28:34;;;;;;;17.98;12.98;;;;;;;;;;5023135;28;20060;-59
2022/04/22 03:31:00;;;;;;;17.95;13.57;;;;;;;;;;5022505;28;20037;-61
2022/04/22 03:33:26;;;;;;;21.17;14.10;;;;;;;;;;5022735;28;20064;-61
2022/04/22 03:35:52;;;;;;;23.45;14.32;;;;;;;;;;5022720;28;20052;-61
2022/04/22 03:38:19;;;;;;;20.73;14.40;;;;;;;;;;5022214;28;20078;-62
2022/04/22 03:40:45;;;;;;;23.25;14.02;;;;;;;;;;5021784;28;20014;-59
2022/04/22 03:43:11;;;;;;;20.30;14.48;;;;;;;;;;5017499;28;20119;-59
2022/04/22 03:45:38;;;;;;;20.95;14.52;;;;;;;;;;5024331;28;20018;-59
2022/04/22 03:48:08;;;;;;;22.23;14.63;;;;;;;;;;5022649;28;20025;-61
2022/04/22 03:50:34;;;;;;;22.33;14.85;;;;;;;;;;5021821;28;20109;-59
2022/04/22 03:53:00;;;;;;;21.25;15.35;;;;;;;;;;5022139;28;20026;-61
2022/04/22 03:55:27;;;;;;;23.23;15.63;;;;;;;;;;5021966;28;20374;-59
2022/04/22 03:58:11;;;;;;;22.27;15.70;;;;;;;;;;5027084;28;20103;-59
2022/04/22 04:00:44;;;;;;;24.92;14.95;;;;;;;;;;5019580;28;20021;-60
2022/04/22 04:03:10;;;;;;;23.10;15.80;;;;;;;;;;5025125;28;20029;-61
2022/04/22 04:05:37;;;;;;;24.35;16.67;;;;;;;;;;5021182;28;20116;-61
2022/04/22 04:08:03;;;;;;;22.63;15.85;;;;;;;;;;5025851;28;21054;-62
2022/04/22 04:15:58;;;;;;;23.70;16.02;;;;;;;;;;5026700;28;20061;-60
2022/04/22 04:18:28;;;;;;;22.40;15.57;;;;;;;;;;5021807;28;20544;-62
2022/04/22 04:23:39;;;;;;;22.20;16.45;;;;;;;;;;5021831;28;20173;-60
2022/04/22 04:26:06;;;;;;;23.92;16.33;;;;;;;;;;5021814;28;20061;-58
2022/04/22 04:28:35;;;;;;;23.52;16.13;;;;;;;;;;5023139;28;20120;-59
2022/04/22 04:31:01;;;;;;;24.83;16.00;;;;;;;;;;5021800;28;20037;-60
2022/04/22 04:33:28;;;;;;;25.85;16.73;;;;;;;;;;5021170;28;20473;-61
2022/04/22 04:35:54;;;;;;;23.27;16.17;;;;;;;;;;5021832;28;20091;-57
2022/04/22 04:38:20;;;;;;;26.98;17.02;;;;;;;;;;5036681;28;20021;-59
2022/04/22 04:40:47;;;;;;;24.83;15.88;;;;;;;;;;5025894;28;20388;-59
2022/04/22 04:43:13;;;;;;;25.98;17.95;;;;;;;;;;5030131;28;20063;-62
2022/04/22 04:45:39;;;;;;;25.80;16.30;;;;;;;;;;5026185;28;20029;-61
2022/04/22 04:48:05;;;;;;;23.98;16.67;;;;;;;;;;5025574;28;20370;-59
2022/04/22 04:50:32;;;;;;;26.65;18.42;;;;;;;;;;5029057;28;20069;-61
2022/04/22 04:52:58;;;;;;;23.20;17.10;;;;;;;;;;5029668;28;20039;-60
2022/04/22 04:55:24;;;;;;;25.27;17.52;;;;;;;;;;5021451;28;20022;-60
2022/04/22 04:57:50;;;;;;;25.45;18.05;;;;;;;;;;5025331;28;20021;-59
2022/04/22 05:00:18;;;;;;;27.67;19.10;;;;;;;;;;5025153;28;20610;-59
2022/04/22 05:02:44;;;;;;;29.02;18.98;;;;;;;;;;5027772;28;20029;-62
2022/04/22 05:05:11;;;;;;;26.33;19.20;;;;;;;;;;5024917;28;20036;-61
2022/04/22 05:07:48;;;;;;;32.28;20.58;;;;;;;;;;5025177;28;20026;-59
2022/04/22 05:10:14;;;;;;;34.28;20.95;;;;;;;;;;5025947;28;20076;-60
2022/04/22 05:12:41;;;;;;;33.10;20.25;;;;;;;;;;5030392;28;20555;-59
2022/04/22 05:15:08;;;;;;;32.45;20.60;;;;;;;;;;5029775;28;20411;-60
2022/04/22 05:17:34;;;;;;;29.58;20.63;;;;;;;;;;5023914;28;20028;-61
2022/04/22 05:20:00;;;;;;;31.63;22.13;;;;;;;;;;5024945;28;20084;-59
2022/04/22 05:22:26;;;;;;;29.63;21.25;;;;;;;;;;5024930;28;20325;-58
2022/04/22 05:24:52;;;;;;;29.88;20.75;;;;;;;;;;5023332;28;20118;-59
2022/04/22 05:27:18;;;;;;;29.10;21.25;;;;;;;;;;5026429;28;20130;-60
2022/04/22 05:32:38;;;;;;;30.35;21.05;;;;;;;;;;5007720;28;20557;-59
2022/04/22 05:35:08;;;;;;;32.15;21.58;;;;;;;;;;5017559;28;20526;-61
2022/04/22 05:37:50;;;;;;;28.65;20.83;;;;;;;;;;5019773;28;20550;-60
2022/04/22 05:40:17;;;;;;;31.52;20.95;;;;;;;;;;5020410;28;20014;-58
2022/04/22 05:42:44;;;;;;;31.35;22.02;;;;;;;;;;5020756;28;20021;-59
2022/04/22 05:45:10;;;;;;;34.30;23.42;;;;;;;;;;5029184;28;20531;-60
2022/04/22 05:47:37;;;;;;;31.05;21.42;;;;;;;;;;5024406;28;20377;-59
2022/04/22 05:50:04;;;;;;;31.77;21.73;;;;;;;;;;5018508;28;20478;-62
2022/04/22 05:52:31;;;;;;;31.90;22.80;;;;;;;;;;5024016;28;20034;-57
2022/04/22 05:54:58;;;;;;;34.70;23.25;;;;;;;;;;5029291;28;20645;-61
2022/04/22 05:57:25;;;;;;;30.83;22.25;;;;;;;;;;5017335;28;20065;-59
2022/04/22 05:59:51;;;;;;;30.92;23.17;;;;;;;;;;5024647;28;20507;-62
2022/04/22 06:02:18;;;;;;;28.63;22.17;;;;;;;;;;5038739;28;20346;-59
2022/04/22 06:04:44;;;;;;;31.50;22.95;;;;;;;;;;5029290;28;20388;-60
2022/04/22 06:07:10;;;;;;;32.55;23.45;;;;;;;;;;5030175;28;20052;-62
2022/04/22 06:12:21;;;;;;;27.40;22.02;;;;;;;;;;5021086;28;20527;-61
2022/04/22 06:14:47;;;;;;;30.15;23.30;;;;;;;;;;5028168;28;20073;-60
2022/04/22 06:17:13;;;;;;;31.75;22.77;;;;;;;;;;5024317;28;20022;-60
2022/04/22 06:19:39;;;;;;;31.92;23.20;;;;;;;;;;5018880;28;20144;-59
2022/04/22 06:22:05;;;;;;;28.17;22.90;;;;;;;;;;5024011;28;20484;-56
2022/04/22 06:24:31;;;;;;;27.55;21.58;;;;;;;;;;5023017;28;20029;-59
2022/04/22 06:26:57;;;;;;;27.58;22.65;;;;;;;;;;5023660;28;20033;-59
2022/04/22 06:29:23;;;;;;;30.13;22.50;;;;;;;;;;5025180;28;20485;-59
2022/04/22 06:31:49;;;;;;;31.45;22.35;;;;;;;;;;5023783;28;20033;-61
2022/04/22 06:34:15;;;;;;;27.42;22.40;;;;;;;;;;5020739;28;20033;-59
2022/04/22 06:36:41;;;;;;;29.98;23.13;;;;;;;;;;5025450;28;20017;-61
2022/04/22 06:39:07;;;;;;;28.90;22.70;;;;;;;;;;5023603;28;20083;-60
2022/04/22 06:47:04;;;;;;;27.52;22.15;;;;;;;;;;5023036;28;20076;-58
2022/04/22 06:49:30;;;;;;;30.70;24.10;;;;;;;;;;5028629;28;20026;-61
2022/04/22 06:51:57;;;;;;;32.47;23.10;;;;;;;;;;5023174;28;20026;-60
2022/04/22 06:54:23;;;;;;;28.88;22.38;;;;;;;;;;5029422;28;20040;-62
2022/04/22 06:56:49;;;;;;;28.50;22.52;;;;;;;;;;5022463;28;20022;-57
2022/04/22 06:59:19;;;;;;;31.00;22.60;;;;;;;;;;5022977;28;20191;-60
2022/04/22 07:01:45;;;;;;;26.95;21.40;;;;;;;;;;5036717;28;20049;-58
2022/04/22 07:04:12;;;;;;;26.20;21.25;;;;;;;;;;5027696;28;20191;-59
2022/04/22 07:06:38;;;;;;;26.85;20.98;;;;;;;;;;5020795;28;20049;-61
2022/04/22 07:09:04;;;;;;;25.17;20.98;;;;;;;;;;5021653;28;20190;-60
2022/04/22 07:11:30;;;;;;;29.20;21.70;;;;;;;;;;5019199;28;20040;-59
2022/04/22 07:13:58;;;;;;;28.42;21.27;;;;;;;;;;5026769;28;20060;-57
2022/04/22 07:16:24;;;;;;;25.80;20.10;;;;;;;;;;5022532;28;20095;-61
2022/04/22 07:18:51;;;;;;;25.55;21.27;;;;;;;;;;5022135;28;20473;-58
2022/04/22 07:21:18;;;;;;;26.08;20.05;;;;;;;;;;5017789;28;20633;-62
2022/04/22 07:23:44;;;;;;;27.08;19.75;;;;;;;;;;5022774;28;20021;-61
2022/04/22 07:26:11;;;;;;;25.33;20.38;;;;;;;;;;5021983;28;20045;-58
2022/04/22 07:28:38;;;;;;;27.85;20.10;;;;;;;;;;5025856;28;20048;-61
2022/04/22 07:31:04;;;;;;;25.00;20.17;;;;;;;;;;5022314;28;20389;-59
2022/04/22 07:33:31;;;;;;;23.77;18.90;;;;;;;;;;5024369;28;20425;-61
2022/04/22 07:35:57;;;;;;;23.45;18.73;;;;;;;;;;5013713;28;20038;-59
2022/04/22 07:38:24;;;;;;;25.38;19.00;;;;;;;;;;5024742;28;20029;-60
2022/04/22 07:40:50;;;;;;;22.30;18.13;;;;;;;;;;5021125;28;20634;-60
2022/04/22 07:48:47;;;;;;;22.23;16.75;;;;;;;;;;5024900;28;20102;-60
2022/04/22 07:51:14;;;;;;;18.13;15.38;;;;;;;;;;5023748;28;20029;-60
2022/04/22 07:53:40;;;;;;;20.67;14.98;;;;;;;;;;5028200;28;20037;-60
2022/04/22 07:56:07;;;;;;;19.38;15.52;;;;;;;;;;5021546;28;20033;-57
2022/04/22 07:58:33;;;;;;;18.35;15.48;;;;;;;;;;5021451;28;20100;-59
2022/04/22 08:00:59;;;;;;;18.52;15.05;;;;;;;;;;5021630;28;20036;-59
2022/04/22 08:03:26;;;;;;;19.52;15.05;;;;;;;;;;5021444;28;20083;-60
2022/04/22 08:05:52;;;;;;;22.55;14.32;;;;;;;;;;5023947;28;20025;-59
2022/04/22 08:08:18;;;;;;;16.25;13.70;;;;;;;;;;5021556;28;20366;-61
2022/04/22 08:10:45;;;;;;;19.75;15.13;;;;;;;;;;5023317;28;20156;-60
2022/04/22 08:13:10;;;;;;;15.43;13.30;;;;;;;;;;5020984;28;20309;-60
2022/04/22 08:15:36;;;;;;;17.80;14.13;;;;;;;;;;5022821;28;20064;-59
2022/04/22 08:18:03;;;;;;;17.73;13.68;;;;;;;;;;5025441;28;20056;-58
2022/04/22 08:20:31;;;;;;;18.05;13.90;;;;;;;;;;5027709;28;20511;-60
2022/04/22 08:22:57;;;;;;;18.05;13.60;;;;;;;;;;5029195;28;20412;-60
2022/04/22 08:25:24;;;;;;;16.45;14.00;;;;;;;;;;5025380;28;20037;-60
2022/04/22 08:27:51;;;;;;;16.33;14.35;;;;;;;;;;5025821;28;20337;-60
2022/04/22 08:30:17;;;;;;;18.80;14.10;;;;;;;;;;5026798;28;20532;-59
2022/04/22 08:32:43;;;;;;;17.92;13.30;;;;;;;;;;5027466;28;20052;-60
2022/04/22 08:35:10;;;;;;;21.08;14.15;;;;;;;;;;5021677;28;20544;-60
2022/04/22 08:37:42;;;;;;;16.85;14.32;;;;;;;;;;5036284;28;20048;-60
2022/04/22 08:40:08;;;;;;;17.33;14.95;;;;;;;;;;5025016;28;20028;-59
2022/04/22 08:42:36;;;;;;;17.83;14.02;;;;;;;;;;5024076;28;20029;-60
2022/04/22 08:45:02;;;;;;;18.33;13.25;;;;;;;;;;5018710;28;20030;-61
2022/04/22 08:50:16;;;;;;;16.25;13.15;;;;;;;;;;5030891;28;20037;-61
2022/04/22 08:52:42;;;;;;;15.80;13.32;;;;;;;;;;5025203;28;20032;-59
2022/04/22 08:55:09;;;;;;;15.48;13.10;;;;;;;;;;5024796;28;20141;-60
2022/04/22 08:57:35;;;;;;;15.13;12.23;;;;;;;;;;5024871;28;20535;-60
2022/04/22 09:00:02;;;;;;;13.75;11.52;;;;;;;;;;5024630;28;20407;-62
2022/04/22 09:02:28;;;;;;;11.85;10.60;;;;;;;;;;5024981;28;20026;-59
2022/04/22 09:04:55;;;;;;;13.93;10.85;;;;;;;;;;5030138;28;20097;-61
2022/04/22 09:07:24;;;;;;;13.02;10.88;;;;;;;;;;5024217;28;20489;-60
2022/04/22 09:09:50;;;;;;;12.38;10.13;;;;;;;;;;5024421;28;20087;-60
2022/04/22 09:12:19;;;;;;;13.18;10.45;;;;;;;;;;5020936;28;20025;-60
2022/04/22 09:14:46;;;;;;;14.57;10.30;;;;;;;;;;5029211;28;20475;-59
2022/04/22 09:17:15;;;;;;;14.52;10.68;;;;;;;;;;5024502;28;20575;-62
2022/04/22 09:19:44;;;;;;;11.73;10.10;;;;;;;;;;5026216;28;20456;-59
2022/04/22 09:22:10;;;;;;;12.27;10.15;;;;;;;;;;5024405;28;20041;-59
2022/04/22 09:24:48;;;;;;;14.68;10.77;;;;;;;;;;5024744;28;20405;-57
2022/04/22 09:27:15;;;;;;;12.55;10.05;;;;;;;;;;5024012;28;20034;-60
2022/04/22 09:29:51;;;;;;;14.13;10.05;;;;;;;;;;5023696;28;20017;-59
2022/04/22 09:32:27;;;;;;;14.50;10.55;;;;;;;;;;5022456;28;20029;-58
2022/04/22 09:34:55;;;;;;;13.18;10.45;;;;;;;;;;5020232;28;20021;-58
2022/04/22 09:42:52;;;;;;;12.88;9.30;;;;;;;;;;5019870;28;20139;-61
2022/04/22 09:45:18;;;;;;;12.82;9.80;;;;;;;;;;5028906;28;20529;-59
2022/04/22 09:47:56;;;;;;;13.95;9.52;;;;;;;;;;5023103;28;20025;-60
2022/04/22 09:50:38;;;;;;;12.90;9.73;;;;;;;;;;5024062;28;20021;-59
2022/04/22 09:53:04;;;;;;;12.95;9.18;;;;;;;;;;5023355;28;20026;-61
2022/04/22 09:55:31;;;;;;;11.98;9.88;;;;;;;;;;5027814;28;20092;-58
2022/04/22 09:57:58;;;;;;;12.02;9.13;;;;;;;;;;5023697;28;20108;-58
2022/04/22 10:00:29;;;;;;;14.30;10.00;;;;;;;;;;5022704;28;20516;-59
2022/04/22 10:02:55;;;;;;;11.30;9.43;;;;;;;;;;5021502;28;20017;-60
2022/04/22 10:05:28;;;;;;;11.57;10.38;;;;;;;;;;5026711;28;20036;-61
2022/04/22 10:07:55;;;;;;;13.05;10.38;;;;;;;;;;5023228;28;20098;-59
2022/04/22 10:10:29;;;;;;;16.40;10.23;;;;;;;;;;5020376;28;20018;-59
2022/04/22 10:12:59;;;;;;;15.05;10.35;;;;;;;;;;5023181;28;20032;-60
2022/04/22 10:15:29;;;;;;;19.00;11.52;;;;;;;;;;5023229;28;20029;-61
2022/04/22 10:17:56;;;;;;;13.70;10.70;;;;;;;;;;5023453;28;20033;-58
2022/04/22 10:20:23;;;;;;;14.93;10.50;;;;;;;;;;5025759;28;20036;-61
2022/04/22 10:22:50;;;;;;;12.38;10.75;;;;;;;;;;5024769;28;20028;-57
2022/04/22 10:25:16;;;;;;;13.57;10.80;;;;;;;;;;5023859;28;20029;-60
2022/04/22 10:27:43;;;;;;;12.35;10.88;;;;;;;;;;5023198;28;20075;-59
2022/04/22 10:30:12;;;;;;;12.30;10.43;;;;;;;;;;5024867;28;20056;-59
2022/04/22 10:32:40;;;;;;;13.50;10.60;;;;;;;;;;5024733;28;20488;-59
2022/04/22 10:35:07;;;;;;;11.43;10.00;;;;;;;;;;5022781;28;20184;-59
2022/04/22 10:37:33;;;;;;;13.70;10.93;;;;;;;;;;5023091;28;20021;-60
2022/04/22 10:40:01;;;;;;;14.80;10.85;;;;;;;;;;5022397;28;20103;-60
2022/04/22 10:42:33;;;;;;;12.02;10.73;;;;;;;;;;5027288;28;20029;-59
2022/04/22 10:47:49;;;;;;;12.95;10.77;;;;;;;;;;5017855;28;20106;-59
2022/04/22 10:50:27;;;;;;;15.05;11.15;;;;;;;;;;5016143;28;20034;-58
2022/04/22 10:53:01;;;;;;;14.75;10.88;;;;;;;;;;5022613;28;20086;-60
2022/04/22 10:55:27;;;;;;;15.23;10.88;;;;;;;;;;5022646;28;20374;-61
2022/04/22 10:58:13;;;;;;;15.95;11.07;;;;;;;;;;5023664;28;20048;-60
2022/04/22 11:00:42;;;;;;;12.23;10.55;;;;;;;;;;5020577;28;20029;-60
2022/04/22 11:03:19;;;;;;;17.08;9.88;;;;;;;;;;5022244;28;20060;-60
2022/04/22 11:05:57;;;;;;;11.57;9.57;;;;;;;;;;5016774;28;20064;-60
2022/04/22 11:08:25;;;;;;;13.90;9.07;;;;;;;;;;5021801;28;20299;-60
2022/04/22 11:10:51;;;;;;;11.63;9.30;;;;;;;;;;5025596;28;20029;-60
2022/04/22 11:13:30;;;;;;;13.55;8.50;;;;;;;;;;5021713;28;20036;-61
2022/04/22 11:15:57;;;;;;;12.13;8.77;;;;;;;;;;5024252;28;20071;-58
2022/04/22 11:18:23;;;;;;;13.55;8.23;;;;;;;;;;5022040;28;20026;-62
2022/04/22 11:20:52;;;;;;;11.55;7.60;;;;;;;;;;5024533;28;20261;-60
2022/04/22 11:23:19;;;;;;;10.68;7.88;;;;;;;;;;5026411;28;20052;-60
2022/04/22 11:25:46;;;;;;;14.02;8.23;;;;;;;;;;5022061;28;20037;-60
2022/04/22 11:28:13;;;;;;;10.35;7.95;;;;;;;;;;5027289;28;20386;-60
2022/04/22 11:30:39;;;;;;;10.10;7.13;;;;;;;;;;5018925;28;20276;-59
2022/04/22 11:33:26;;;;;;;11.63;6.93;;;;;;;;;;5024674;28;20029;-59
2022/04/22 11:35:59;;;;;;;10.48;6.97;;;;;;;;;;5020574;28;20041;-61
2022/04/22 11:38:25;;;;;;;10.70;7.63;;;;;;;;;;5025953;28;20116;-59
2022/04/22 11:40:52;;;;;;;8.02;6.88;;;;;;;;;;5024298;28;20088;-61
2022/04/22 11:43:18;;;;;;;9.98;7.25;;;;;;;;;;5019054;28;20029;-60
2022/04/22 11:45:48;;;;;;;11.95;7.28;;;;;;;;;;5021159;28;20084;-60
2022/04/22 11:48:14;;;;;;;10.70;6.70;;;;;;;;;;5021830;28;20026;-60
2022/04/22 11:50:42;;;;;;;12.10;7.18;;;;;;;;;;5021935;28;20091;-59
2022/04/22 11:53:13;;;;;;;10.07;6.70;;;;;;;;;;5020910;28;20037;-60
2022/04/22 11:55:42;;;;;;;9.43;6.53;;;;;;;;;;5026117;28;20413;-61
2022/04/22 11:58:08;;;;;;;9.75;7.03;;;;;;;;;;5021856;28;20140;-62
2022/04/22 12:06:03;;;;;;;12.35;7.20;;;;;;;;;;5021288;28;20110;-59
2022/04/22 12:08:29;;;;;;;10.82;7.25;;;;;;;;;;5022497;28;20029;-60
2022/04/22 12:10:55;;;;;;;14.65;8.23;;;;;;;;;;5024628;28;20170;-59
2022/04/22 12:13:24;;;;;;;12.85;8.32;;;;;;;;;;5021524;28;20334;-59
2022/04/22 12:15:50;;;;;;;11.50;8.98;;;;;;;;;;5021706;28;20048;-61
2022/04/22 12:18:29;;;;;;;17.48;11.23;;;;;;;;;;5021259;28;20091;-58
2022/04/22 12:20:56;;;;;;;17.15;10.77;;;;;;;;;;5015003;28;20018;-60
2022/04/22 12:23:22;;;;;;;14.45;9.80;;;;;;;;;;5025804;28;20497;-60
2022/04/22 12:25:58;;;;;;;13.85;9.75;;;;;;;;;;5020650;28;20080;-60
2022/04/22 12:28:24;;;;;;;13.25;9.55;;;;;;;;;;5021542;28;20147;-60
2022/04/22 12:30:51;;;;;;;11.35;8.90;;;;;;;;;;5023318;28;20527;-59
2022/04/22 12:33:18;;;;;;;12.75;9.13;;;;;;;;;;5024383;28;20092;-59
2022/04/22 12:35:45;;;;;;;12.75;8.23;;;;;;;;;;5021549;28;20025;-60
2022/04/22 12:38:12;;;;;;;13.15;8.60;;;;;;;;;;5024810;28;20432;-58
2022/04/22 12:40:48;;;;;;;10.95;7.93;;;;;;;;;;5020444;28;20042;-57
2022/04/22 12:43:20;;;;;;;8.70;7.80;;;;;;;;;;5023022;28;20091;-61
2022/04/22 12:54:04;;;;;;;13.25;8.73;;;;;;;;;;5021508;28;20183;-60
2022/04/22 12:56:30;;;;;;;11.75;9.23;;;;;;;;;;5016719;28;20032;-61
2022/04/22 12:58:58;;;;;;;10.55;8.57;;;;;;;;;;5024583;28;20456;-59
2022/04/22 13:01:36;;;;;;;14.98;11.02;;;;;;;;;;5022117;28;20454;-60
2022/04/22 13:04:03;;;;;;;13.57;10.45;;;;;;;;;;5018419;28;20033;-59
2022/04/22 13:06:45;;;;;;;12.02;9.32;;;;;;;;;;5021307;28;20507;-61
2022/04/22 13:09:12;;;;;;;14.57;9.40;;;;;;;;;;5021147;28;20033;-60
2022/04/22 13:11:39;;;;;;;14.40;8.20;;;;;;;;;;5023783;28;20033;-60
2022/04/22 13:14:06;;;;;;;11.63;8.93;;;;;;;;;;5024805;28;20044;-60
2022/04/22 13:16:32;;;;;;;12.10;9.25;;;;;;;;;;5026736;28;20502;-59
2022/04/22 13:18:59;;;;;;;13.02;9.20;;;;;;;;;;5024713;28;20045;-59
2022/04/22 13:21:25;;;;;;;11.45;9.77;;;;;;;;;;5024251;28;20112;-60
2022/04/22 13:23:51;;;;;;;10.98;9.82;;;;;;;;;;5029025;28;20468;-61
2022/04/22 13:26:18;;;;;;;12.00;9.57;;;;;;;;;;5024151;28;20044;-57
2022/04/22 13:28:44;;;;;;;12.70;8.82;;;;;;;;;;5029237;28;20516;-59
2022/04/22 13:31:10;;;;;;;12.23;8.80;;;;;;;;;;5021058;28;20051;-60
2022/04/22 13:33:36;;;;;;;13.23;9.20;;;;;;;;;;5027552;28;20025;-60
2022/04/22 13:36:03;;;;;;;11.90;9.10;;;;;;;;;;5010249;28;20361;-62
2022/04/22 13:38:30;;;;;;;10.18;8.32;;;;;;;;;;5028010;28;20040;-57
2022/04/22 13:40:56;;;;;;;13.40;8.43;;;;;;;;;;5024795;28;20432;-60
2022/04/22 13:43:22;;;;;;;11.45;8.20;;;;;;;;;;5021459;28;20022;-60
2022/04/22 13:54:03;;;;;;;9.35;6.55;;;;;;;;;;5023492;28;20051;-61
2022/04/22 13:56:29;;;;;;;9.63;6.57;;;;;;;;;;5028549;28;20037;-59
2022/04/22 13:58:55;;;;;;;8.40;6.95;;;;;;;;;;5022481;28;20017;-60
2022/04/22 14:01:21;;;;;;;8.02;6.07;;;;;;;;;;5023859;28;20029;-61
2022/04/22 14:03:47;;;;;;;9.63;6.63;;;;;;;;;;5028343;28;20366;-59
2022/04/22 14:06:13;;;;;;;11.45;7.00;;;;;;;;;;5023650;28;20111;-59
2022/04/22 14:08:40;;;;;;;9.73;7.50;;;;;;;;;;5025864;28;20025;-60
2022/04/22 14:11:08;;;;;;;10.95;7.88;;;;;;;;;;5025264;28;20045;-62
2022/04/22 14:13:34;;;;;;;8.80;7.38;;;;;;;;;;5023218;28;20461;-61
2022/04/22 14:16:01;;;;;;;8.73;6.55;;;;;;;;;;5022568;28;20076;-60
2022/04/22 14:18:31;;;;;;;11.80;7.68;;;;;;;;;;5021995;28;20424;-59
2022/04/22 14:21:01;;;;;;;9.93;8.43;;;;;;;;;;5021074;28;20022;-59
2022/04/22 14:23:27;;;;;;;13.25;8.25;;;;;;;;;;5023908;28;20030;-61
2022/04/22 14:25:56;;;;;;;11.65;8.43;;;;;;;;;;5024341;28;20528;-62
2022/04/22 14:28:22;;;;;;;8.65;6.95;;;;;;;;;;5028475;28;20033;-61
2022/04/22 14:30:49;;;;;;;10.77;7.50;;;;;;;;;;5023073;28;20428;-59
2022/04/22 14:33:15;;;;;;;7.97;6.47;;;;;;;;;;5026523;28;20072;-60
2022/04/22 14:35:41;;;;;;;8.60;6.13;;;;;;;;;;5023731;28;20071;-60
2022/04/22 14:38:07;;;;;;;9.10;5.68;;;;;;;;;;5027010;28;20346;-59
2022/04/22 14:40:33;;;;;;;6.70;5.28;;;;;;;;;;5023088;28;20049;-59
2022/04/22 14:43:01;;;;;;;5.45;4.57;;;;;;;;;;5025556;28;20022;-59
2022/04/22 14:45:28;;;;;;;9.23;5.18;;;;;;;;;;5022693;28;20017;-60
2022/04/22 14:47:55;;;;;;;7.47;5.10;;;;;;;;;;5022878;28;20087;-59
2022/04/22 14:50:21;;;;;;;6.38;5.03;;;;;;;;;;5022978;28;20036;-59
2022/04/22 14:52:48;;;;;;;7.35;5.28;;;;;;;;;;5026859;28;20033;-59
2022/04/22 14:55:14;;;;;;;8.98;5.20;;;;;;;;;;5027481;28;20126;-59
2022/04/22 14:57:40;;;;;;;7.30;5.22;;;;;;;;;;5022483;28;20029;-60
2022/04/22 15:00:09;;;;;;;9.07;6.38;;;;;;;;;;5027690;28;20025;-60
2022/04/22 15:02:35;;;;;;;7.40;6.60;;;;;;;;;;5022600;28;20494;-61
2022/04/22 15:05:02;;;;;;;8.73;6.35;;;;;;;;;;5022747;28;20057;-60
2022/04/22 15:07:29;;;;;;;8.00;6.75;;;;;;;;;;5023352;28;20044;-57
2022/04/22 15:09:56;;;;;;;8.90;6.15;;;;;;;;;;5026597;28;20488;-60
2022/04/22 15:12:22;;;;;;;8.68;6.85;;;;;;;;;;5021356;28;20435;-59
2022/04/22 15:14:50;;;;;;;11.18;7.05;;;;;;;;;;5024633;28;20103;-58
2022/04/22 15:17:16;;;;;;;9.93;6.72;;;;;;;;;;5022339;28;20128;-59
2022/04/22 15:25:11;;;;;;;10.35;8.60;;;;;;;;;;5023662;28;20119;-61
2022/04/22 15:27:37;;;;;;;11.00;8.50;;;;;;;;;;5019636;28;20049;-61
2022/04/22 15:30:04;;;;;;;9.90;8.90;;;;;;;;;;5022198;28;20496;-60
2022/04/22 15:32:30;;;;;;;12.27;8.60;;;;;;;;;;5014415;28;20037;-60
2022/04/22 15:34:57;;;;;;;13.07;9.43;;;;;;;;;;5024177;28;20036;-59
2022/04/22 15:37:23;;;;;;;11.35;9.40;;;;;;;;;;5025988;28;20017;-61
2022/04/22 15:39:50;;;;;;;12.20;9.60;;;;;;;;;;5023136;28;20562;-59
2022/04/22 15:42:16;;;;;;;14.50;9.23;;;;;;;;;;5021172;28;20117;-60